sensor_id;sensor_type;location;lat;lon;timestamp;pressure;altitude;pressure_sealevel;temperature;humidity
11190;BME280;5651;50.926;4.718;2023-03-16T00:00:24;101620.31;;;6.21;81.90
11190;BME280;5651;50.926;4.718;2023-03-16T00:02:49;101616.06;;;6.23;81.35
11190;BME280;5651;50.926;4.718;2023-03-16T00:05:15;101609.16;;;6.23;80.98
11190;BME280;5651;50.926;4.718;2023-03-16T00:07:41;101608.31;;;6.24;81.04
11190;BME280;5651;50.926;4.718;2023-03-16T00:10:09;101606.75;;;6.29;81.13
11190;BME280;5651;50.926;4.718;2023-03-16T00:12:37;101599.94;;;6.33;80.19
11190;BME280;5651;50.926;4.718;2023-03-16T00:15:03;101592.78;;;6.24;81.98
11190;BME280;5651;50.926;4.718;2023-03-16T00:17:29;101597.22;;;6.28;81.77
11190;BME280;5651;50.926;4.718;2023-03-16T00:19:56;101591.94;;;6.24;81.81
11190;BME280;5651;50.926;4.718;2023-03-16T00:22:24;101592.88;;;6.27;81.26
11190;BME280;5651;50.926;4.718;2023-03-16T00:24:50;101598.16;;;6.30;81.98
11190;BME280;5651;50.926;4.718;2023-03-16T00:27:17;101589.47;;;6.28;81.68
11190;BME280;5651;50.926;4.718;2023-03-16T00:29:45;101585.94;;;6.26;82.05
11190;BME280;5651;50.926;4.718;2023-03-16T00:32:14;101587.69;;;6.27;83.12
11190;BME280;5651;50.926;4.718;2023-03-16T00:34:41;101587.69;;;6.26;82.72
11190;BME280;5651;50.926;4.718;2023-03-16T00:37:07;101593.13;;;6.37;81.23
11190;BME280;5651;50.926;4.718;2023-03-16T00:39:33;101586.19;;;6.36;82.40
11190;BME280;5651;50.926;4.718;2023-03-16T00:42:03;101588.78;;;6.36;81.92
11190;BME280;5651;50.926;4.718;2023-03-16T00:44:29;101587.81;;;6.32;82.94
11190;BME280;5651;50.926;4.718;2023-03-16T00:46:56;101588.81;;;6.39;82.59
11190;BME280;5651;50.926;4.718;2023-03-16T00:49:21;101580.19;;;6.38;83.05
11190;BME280;5651;50.926;4.718;2023-03-16T00:51:47;101579.34;;;6.38;82.85
11190;BME280;5651;50.926;4.718;2023-03-16T00:54:13;101585.56;;;6.46;81.56
11190;BME280;5651;50.926;4.718;2023-03-16T00:56:39;101589.00;;;6.45;82.81
11190;BME280;5651;50.926;4.718;2023-03-16T00:59:04;101579.53;;;6.47;83.07
11190;BME280;5651;50.926;4.718;2023-03-16T01:01:31;101572.66;;;6.47;82.50
11190;BME280;5651;50.926;4.718;2023-03-16T01:03:59;101568.09;;;6.37;84.36
11190;BME280;5651;50.926;4.718;2023-03-16T01:06:26;101560.59;;;6.48;83.67
11190;BME280;5651;50.926;4.718;2023-03-16T01:08:52;101552.94;;;6.53;82.04
11190;BME280;5651;50.926;4.718;2023-03-16T01:11:20;101552.09;;;6.54;83.04
11190;BME280;5651;50.926;4.718;2023-03-16T01:13:48;101546.91;;;6.54;82.42
11190;BME280;5651;50.926;4.718;2023-03-16T01:16:15;101544.19;;;6.47;83.40
11190;BME280;5651;50.926;4.718;2023-03-16T01:18:43;101547.75;;;6.53;82.52
11190;BME280;5651;50.926;4.718;2023-03-16T01:21:09;101546.81;;;6.49;83.86
11190;BME280;5651;50.926;4.718;2023-03-16T01:23:39;101545.13;;;6.51;83.05
11190;BME280;5651;50.926;4.718;2023-03-16T01:26:05;101536.34;;;6.44;83.49
11190;BME280;5651;50.926;4.718;2023-03-16T01:28:32;101540.56;;;6.41;83.95
11190;BME280;5651;50.926;4.718;2023-03-16T01:31:02;101544.06;;;6.43;84.43
11190;BME280;5651;50.926;4.718;2023-03-16T01:33:28;101537.38;;;6.51;83.80
11190;BME280;5651;50.926;4.718;2023-03-16T01:35:56;101534.91;;;6.57;81.62
11190;BME280;5651;50.926;4.718;2023-03-16T01:38:22;101529.81;;;6.60;82.50
11190;BME280;5651;50.926;4.718;2023-03-16T01:40:49;101517.63;;;6.56;82.16
11190;BME280;5651;50.926;4.718;2023-03-16T01:43:17;101524.56;;;6.57;82.24
11190;BME280;5651;50.926;4.718;2023-03-16T01:54:27;101513.25;;;6.54;83.42
11190;BME280;5651;50.926;4.718;2023-03-16T01:57:12;101507.25;;;6.55;83.24
11190;BME280;5651;50.926;4.718;2023-03-16T02:02:19;101510.81;;;6.60;83.25
11190;BME280;5651;50.926;4.718;2023-03-16T02:05:01;101508.28;;;6.63;82.48
11190;BME280;5651;50.926;4.718;2023-03-16T02:07:31;101512.47;;;6.58;83.00
11190;BME280;5651;50.926;4.718;2023-03-16T02:09:59;101506.44;;;6.57;83.89
11190;BME280;5651;50.926;4.718;2023-03-16T02:12:27;101513.28;;;6.55;83.44
11190;BME280;5651;50.926;4.718;2023-03-16T02:14:53;101500.56;;;6.66;82.70
11190;BME280;5651;50.926;4.718;2023-03-16T02:17:23;101497.97;;;6.66;83.11
11190;BME280;5651;50.926;4.718;2023-03-16T02:22:41;101488.56;;;6.70;83.58
11190;BME280;5651;50.926;4.718;2023-03-16T02:25:09;101486.06;;;6.73;82.81
11190;BME280;5651;50.926;4.718;2023-03-16T02:30:30;101486.81;;;6.69;85.17
11190;BME280;5651;50.926;4.718;2023-03-16T02:32:56;101474.91;;;6.77;83.53
11190;BME280;5651;50.926;4.718;2023-03-16T02:35:22;101471.34;;;6.72;84.53
11190;BME280;5651;50.926;4.718;2023-03-16T02:37:48;101470.50;;;6.71;84.10
11190;BME280;5651;50.926;4.718;2023-03-16T02:40:28;101469.56;;;6.68;85.66
11190;BME280;5651;50.926;4.718;2023-03-16T02:43:02;101466.97;;;6.68;85.82
11190;BME280;5651;50.926;4.718;2023-03-16T02:45:33;101465.31;;;6.71;85.03
11190;BME280;5651;50.926;4.718;2023-03-16T02:48:05;101471.22;;;6.64;86.77
11190;BME280;5651;50.926;4.718;2023-03-16T02:50:32;101463.50;;;6.69;85.54
11190;BME280;5651;50.926;4.718;2023-03-16T02:52:58;101466.97;;;6.68;85.12
11190;BME280;5651;50.926;4.718;2023-03-16T02:55:24;101467.81;;;6.68;85.76
11190;BME280;5651;50.926;4.718;2023-03-16T02:57:50;101470.44;;;6.70;84.81
11190;BME280;5651;50.926;4.718;2023-03-16T03:00:17;101464.41;;;6.69;84.90
11190;BME280;5651;50.926;4.718;2023-03-16T03:02:44;101458.38;;;6.70;85.29
11190;BME280;5651;50.926;4.718;2023-03-16T03:05:11;101453.31;;;6.76;84.88
11190;BME280;5651;50.926;4.718;2023-03-16T03:07:37;101454.06;;;6.71;85.36
11190;BME280;5651;50.926;4.718;2023-03-16T03:10:04;101444.53;;;6.70;85.57
11190;BME280;5651;50.926;4.718;2023-03-16T03:12:32;101439.34;;;6.70;85.13
11190;BME280;5651;50.926;4.718;2023-03-16T03:14:58;101431.50;;;6.65;85.90
11190;BME280;5651;50.926;4.718;2023-03-16T03:17:24;101439.31;;;6.66;84.86
11190;BME280;5651;50.926;4.718;2023-03-16T03:19:56;101429.78;;;6.65;84.74
11190;BME280;5651;50.926;4.718;2023-03-16T03:22:22;101428.13;;;6.68;84.46
11190;BME280;5651;50.926;4.718;2023-03-16T03:24:48;101425.44;;;6.64;85.89
11190;BME280;5651;50.926;4.718;2023-03-16T03:27:13;101423.81;;;6.68;85.33
11190;BME280;5651;50.926;4.718;2023-03-16T03:29:39;101422.88;;;6.64;85.56
11190;BME280;5651;50.926;4.718;2023-03-16T03:32:05;101424.50;;;6.59;86.21
11190;BME280;5651;50.926;4.718;2023-03-16T03:34:31;101422.00;;;6.64;85.72
11190;BME280;5651;50.926;4.718;2023-03-16T03:36:58;101420.13;;;6.57;86.39
11190;BME280;5651;50.926;4.718;2023-03-16T03:39:24;101417.53;;;6.57;87.07
11190;BME280;5651;50.926;4.718;2023-03-16T03:41:50;101411.44;;;6.55;87.18
11190;BME280;5651;50.926;4.718;2023-03-16T03:44:22;101410.50;;;6.51;86.96
11190;BME280;5651;50.926;4.718;2023-03-16T03:46:48;101419.03;;;6.47;88.68
11190;BME280;5651;50.926;4.718;2023-03-16T03:49:16;101415.47;;;6.42;89.46
11190;BME280;5651;50.926;4.718;2023-03-16T03:51:42;101406.91;;;6.46;89.31
11190;BME280;5651;50.926;4.718;2023-03-16T03:54:09;101409.47;;;6.43;90.08
11190;BME280;5651;50.926;4.718;2023-03-16T03:56:35;101400.69;;;6.36;91.02
11190;BME280;5651;50.926;4.718;2023-03-16T03:59:00;101399.94;;;6.40;88.38
11190;BME280;5651;50.926;4.718;2023-03-16T04:01:26;101405.94;;;6.39;88.93
11190;BME280;5651;50.926;4.718;2023-03-16T04:03:52;101402.44;;;6.37;89.50
11190;BME280;5651;50.926;4.718;2023-03-16T04:06:17;101402.44;;;6.37;90.29
11190;BME280;5651;50.926;4.718;2023-03-16T04:08:43;101397.34;;;6.40;89.68
11190;BME280;5651;50.926;4.718;2023-03-16T04:11:09;101399.84;;;6.37;90.21
11190;BME280;5651;50.926;4.718;2023-03-16T04:13:36;101388.72;;;6.41;89.09
11190;BME280;5651;50.926;4.718;2023-03-16T04:16:02;101378.28;;;6.37;89.24
11190;BME280;5651;50.926;4.718;2023-03-16T04:18:29;101381.69;;;6.36;90.91
11190;BME280;5651;50.926;4.718;2023-03-16T04:20:54;101379.13;;;6.36;89.21
11190;BME280;5651;50.926;4.718;2023-03-16T04:23:21;101373.94;;;6.36;89.33
11190;BME280;5651;50.926;4.718;2023-03-16T04:25:47;101373.03;;;6.35;90.11
11190;BME280;5651;50.926;4.718;2023-03-16T04:28:13;101370.63;;;6.43;88.55
11190;BME280;5651;50.926;4.718;2023-03-16T04:30:42;101366.41;;;6.46;88.18
11190;BME280;5651;50.926;4.718;2023-03-16T04:33:08;101365.25;;;6.33;91.02
11190;BME280;5651;50.926;4.718;2023-03-16T04:35:34;101365.34;;;6.38;89.60
11190;BME280;5651;50.926;4.718;2023-03-16T04:37:59;101361.94;;;6.39;88.66
11190;BME280;5651;50.926;4.718;2023-03-16T04:40:26;101364.53;;;6.41;88.96
11190;BME280;5651;50.926;4.718;2023-03-16T04:42:52;101355.09;;;6.41;89.28
11190;BME280;5651;50.926;4.718;2023-03-16T04:45:18;101358.44;;;6.37;90.07
11190;BME280;5651;50.926;4.718;2023-03-16T04:47:44;101360.91;;;6.32;90.91
11190;BME280;5651;50.926;4.718;2023-03-16T04:50:11;101356.66;;;6.34;89.91
11190;BME280;5651;50.926;4.718;2023-03-16T04:52:37;101356.56;;;6.30;90.93
11190;BME280;5651;50.926;4.718;2023-03-16T04:55:03;101355.75;;;6.32;91.31
11190;BME280;5651;50.926;4.718;2023-03-16T04:57:29;101350.53;;;6.31;91.25
11190;BME280;5651;50.926;4.718;2023-03-16T04:59:54;101343.75;;;6.36;89.43
11190;BME280;5651;50.926;4.718;2023-03-16T05:02:20;101341.13;;;6.34;89.93
11190;BME280;5651;50.926;4.718;2023-03-16T05:04:46;101346.22;;;6.31;91.18
11190;BME280;5651;50.926;4.718;2023-03-16T05:07:12;101351.50;;;6.36;90.50
11190;BME280;5651;50.926;4.718;2023-03-16T05:09:38;101350.63;;;6.34;90.68
11190;BME280;5651;50.926;4.718;2023-03-16T05:12:04;101349.84;;;6.40;90.12
11190;BME280;5651;50.926;4.718;2023-03-16T05:14:30;101334.19;;;6.33;90.76
11190;BME280;5651;50.926;4.718;2023-03-16T05:16:56;101341.00;;;6.28;92.22
11190;BME280;5651;50.926;4.718;2023-03-16T05:19:22;101341.09;;;6.33;91.46
11190;BME280;5651;50.926;4.718;2023-03-16T05:21:48;101335.13;;;6.37;89.54
11190;BME280;5651;50.926;4.718;2023-03-16T05:24:13;101335.16;;;6.39;90.02
11190;BME280;5651;50.926;4.718;2023-03-16T05:26:39;101338.66;;;6.41;89.42
11190;BME280;5651;50.926;4.718;2023-03-16T05:29:05;101330.06;;;6.43;89.68
11190;BME280;5651;50.926;4.718;2023-03-16T05:31:30;101329.91;;;6.34;91.90
11190;BME280;5651;50.926;4.718;2023-03-16T05:34:00;101328.22;;;6.36;90.39
11190;BME280;5651;50.926;4.718;2023-03-16T05:36:26;101327.44;;;6.40;89.79
11190;BME280;5651;50.926;4.718;2023-03-16T05:38:52;101327.56;;;6.46;89.66
11190;BME280;5651;50.926;4.718;2023-03-16T05:41:18;101321.44;;;6.43;90.81
11190;BME280;5651;50.926;4.718;2023-03-16T05:43:46;101320.63;;;6.44;90.37
11190;BME280;5651;50.926;4.718;2023-03-16T05:46:12;101314.44;;;6.39;91.39
11190;BME280;5651;50.926;4.718;2023-03-16T05:48:38;101321.47;;;6.44;90.51
11190;BME280;5651;50.926;4.718;2023-03-16T05:51:04;101323.31;;;6.50;89.03
11190;BME280;5651;50.926;4.718;2023-03-16T05:53:33;101318.97;;;6.49;90.18
11190;BME280;5651;50.926;4.718;2023-03-16T05:56:00;101318.16;;;6.52;89.93
11190;BME280;5651;50.926;4.718;2023-03-16T05:58:27;101313.91;;;6.54;89.79
11190;BME280;5651;50.926;4.718;2023-03-16T06:00:52;101313.88;;;6.52;89.88
11190;BME280;5651;50.926;4.718;2023-03-16T06:03:20;101313.00;;;6.52;90.23
11190;BME280;5651;50.926;4.718;2023-03-16T06:05:47;101313.03;;;6.53;89.52
11190;BME280;5651;50.926;4.718;2023-03-16T06:08:13;101315.75;;;6.61;88.27
11190;BME280;5651;50.926;4.718;2023-03-16T06:10:39;101313.09;;;6.58;90.23
11190;BME280;5651;50.926;4.718;2023-03-16T06:13:06;101312.25;;;6.57;89.90
11190;BME280;5651;50.926;4.718;2023-03-16T06:15:31;101315.66;;;6.56;90.12
11190;BME280;5651;50.926;4.718;2023-03-16T06:17:57;101318.34;;;6.61;89.83
11190;BME280;5651;50.926;4.718;2023-03-16T06:20:23;101313.16;;;6.59;89.56
11190;BME280;5651;50.926;4.718;2023-03-16T06:22:49;101314.19;;;6.68;88.80
11190;BME280;5651;50.926;4.718;2023-03-16T06:25:15;101308.09;;;6.67;88.99
11190;BME280;5651;50.926;4.718;2023-03-16T06:27:41;101299.38;;;6.62;89.50
11190;BME280;5651;50.926;4.718;2023-03-16T06:30:09;101302.00;;;6.65;89.32
11190;BME280;5651;50.926;4.718;2023-03-16T06:32:36;101299.44;;;6.65;89.74
11190;BME280;5651;50.926;4.718;2023-03-16T06:35:03;101300.28;;;6.64;90.66
11190;BME280;5651;50.926;4.718;2023-03-16T06:37:30;101299.56;;;6.71;89.07
11190;BME280;5651;50.926;4.718;2023-03-16T06:39:56;101302.06;;;6.66;89.07
11190;BME280;5651;50.926;4.718;2023-03-16T06:42:22;101296.06;;;6.69;90.23
11190;BME280;5651;50.926;4.718;2023-03-16T06:44:48;101281.38;;;6.70;89.08
11190;BME280;5651;50.926;4.718;2023-03-16T06:47:14;101283.22;;;6.75;89.98
11190;BME280;5651;50.926;4.718;2023-03-16T06:49:39;101278.94;;;6.76;89.05
11190;BME280;5651;50.926;4.718;2023-03-16T06:52:05;101284.16;;;6.79;88.88
11190;BME280;5651;50.926;4.718;2023-03-16T06:54:31;101298.00;;;6.81;88.96
11190;BME280;5651;50.926;4.718;2023-03-16T06:56:59;101295.34;;;6.78;89.40
11190;BME280;5651;50.926;4.718;2023-03-16T06:59:26;101297.09;;;6.79;88.57
11190;BME280;5651;50.926;4.718;2023-03-16T07:01:51;101303.09;;;6.75;89.67
11190;BME280;5651;50.926;4.718;2023-03-16T07:04:17;101300.53;;;6.78;89.59
11190;BME280;5651;50.926;4.718;2023-03-16T07:06:43;101299.81;;;6.85;89.11
11190;BME280;5651;50.926;4.718;2023-03-16T07:09:09;101307.63;;;6.88;88.51
11190;BME280;5651;50.926;4.718;2023-03-16T07:11:35;101298.13;;;6.89;88.83
11190;BME280;5651;50.926;4.718;2023-03-16T07:14:00;101304.13;;;6.86;89.56
11190;BME280;5651;50.926;4.718;2023-03-16T07:16:26;101305.13;;;6.93;89.08
11190;BME280;5651;50.926;4.718;2023-03-16T07:18:53;101300.03;;;6.97;88.15
11190;BME280;5651;50.926;4.718;2023-03-16T07:21:18;101300.03;;;6.97;88.86
11190;BME280;5651;50.926;4.718;2023-03-16T07:23:44;101288.88;;;7.03;88.41
11190;BME280;5651;50.926;4.718;2023-03-16T07:26:11;101292.34;;;7.02;88.95
11190;BME280;5651;50.926;4.718;2023-03-16T07:28:37;101290.72;;;7.10;87.71
11190;BME280;5651;50.926;4.718;2023-03-16T07:31:04;101299.41;;;7.12;88.18
11190;BME280;5651;50.926;4.718;2023-03-16T07:33:31;101300.34;;;7.18;88.62
11190;BME280;5651;50.926;4.718;2023-03-16T07:35:58;101300.47;;;7.24;87.73
11190;BME280;5651;50.926;4.718;2023-03-16T07:38:24;101291.81;;;7.23;87.89
11190;BME280;5651;50.926;4.718;2023-03-16T07:40:49;101293.59;;;7.26;87.26
11190;BME280;5651;50.926;4.718;2023-03-16T07:43:17;101297.97;;;7.28;87.13
11190;BME280;5651;50.926;4.718;2023-03-16T07:45:47;101284.34;;;7.42;86.81
11190;BME280;5651;50.926;4.718;2023-03-16T07:48:14;101293.81;;;7.38;86.21
11190;BME280;5651;50.926;4.718;2023-03-16T07:50:40;101301.59;;;7.40;86.69
11190;BME280;5651;50.926;4.718;2023-03-16T07:53:06;101304.09;;;7.34;86.15
11190;BME280;5651;50.926;4.718;2023-03-16T07:55:32;101292.81;;;7.32;86.07
11190;BME280;5651;50.926;4.718;2023-03-16T07:58:01;101292.06;;;7.39;86.24
11190;BME280;5651;50.926;4.718;2023-03-16T08:00:27;101293.00;;;7.44;85.77
11190;BME280;5651;50.926;4.718;2023-03-16T08:02:53;101297.47;;;7.53;86.60
11190;BME280;5651;50.926;4.718;2023-03-16T08:05:20;101281.31;;;7.71;87.23
11190;BME280;5651;50.926;4.718;2023-03-16T08:07:46;101288.41;;;7.84;85.99
11190;BME280;5651;50.926;4.718;2023-03-16T08:10:12;101292.88;;;7.95;86.66
11190;BME280;5651;50.926;4.718;2023-03-16T08:12:38;101290.41;;;8.04;85.55
11190;BME280;5651;50.926;4.718;2023-03-16T08:15:04;101304.38;;;8.15;85.34
11190;BME280;5651;50.926;4.718;2023-03-16T08:17:30;101300.22;;;8.27;84.62
11190;BME280;5651;50.926;4.718;2023-03-16T08:19:56;101294.25;;;8.35;83.87
11190;BME280;5651;50.926;4.718;2023-03-16T08:22:21;101296.91;;;8.40;83.67
11190;BME280;5651;50.926;4.718;2023-03-16T08:24:48;101297.91;;;8.50;83.67
11190;BME280;5651;50.926;4.718;2023-03-16T08:27:13;101295.44;;;8.62;83.77
11190;BME280;5651;50.926;4.718;2023-03-16T08:29:40;101299.78;;;8.65;82.37
11190;BME280;5651;50.926;4.718;2023-03-16T08:32:06;101296.28;;;8.60;82.24
11190;BME280;5651;50.926;4.718;2023-03-16T08:34:33;101293.69;;;8.61;81.36
11190;BME280;5651;50.926;4.718;2023-03-16T08:37:00;101285.94;;;8.63;81.62
11190;BME280;5651;50.926;4.718;2023-03-16T08:39:26;101293.72;;;8.64;81.59
11190;BME280;5651;50.926;4.718;2023-03-16T08:41:53;101287.69;;;8.67;81.53
11190;BME280;5651;50.926;4.718;2023-03-16T08:44:19;101284.34;;;8.79;79.66
11190;BME280;5651;50.926;4.718;2023-03-16T08:46:45;101282.66;;;8.84;80.08
11190;BME280;5651;50.926;4.718;2023-03-16T08:49:11;101288.00;;;8.99;80.47
11190;BME280;5651;50.926;4.718;2023-03-16T08:51:38;101273.34;;;9.04;78.92
11190;BME280;5651;50.926;4.718;2023-03-16T08:54:04;101273.44;;;9.15;78.28
11190;BME280;5651;50.926;4.718;2023-03-16T08:56:30;101270.88;;;9.22;78.73
11190;BME280;5651;50.926;4.718;2023-03-16T08:58:56;101271.81;;;9.31;77.33
11190;BME280;5651;50.926;4.718;2023-03-16T09:01:22;101269.31;;;9.48;78.72
11190;BME280;5651;50.926;4.718;2023-03-16T09:03:50;101271.16;;;9.63;78.12
11190;BME280;5651;50.926;4.718;2023-03-16T09:06:17;101276.41;;;9.71;76.78
11190;BME280;5651;50.926;4.718;2023-03-16T09:08:43;101267.75;;;9.78;75.77
11190;BME280;5651;50.926;4.718;2023-03-16T09:11:12;101272.16;;;9.87;75.78
11190;BME280;5651;50.926;4.718;2023-03-16T09:13:42;101274.81;;;9.98;76.65
11190;BME280;5651;50.926;4.718;2023-03-16T09:16:10;101274.78;;;9.95;72.74
11190;BME280;5651;50.926;4.718;2023-03-16T09:18:37;101273.13;;;10.09;74.87
11190;BME280;5651;50.926;4.718;2023-03-16T09:21:05;101270.56;;;10.17;74.58
11190;BME280;5651;50.926;4.718;2023-03-16T09:23:32;101274.03;;;10.24;74.03
11190;BME280;5651;50.926;4.718;2023-03-16T09:26:01;101271.53;;;10.39;74.97
11190;BME280;5651;50.926;4.718;2023-03-16T09:28:28;101269.84;;;10.51;73.65
11190;BME280;5651;50.926;4.718;2023-03-16T09:30:56;101276.78;;;10.55;69.01
11190;BME280;5651;50.926;4.718;2023-03-16T09:33:23;101268.09;;;10.50;68.72
11190;BME280;5651;50.926;4.718;2023-03-16T09:35:50;101261.16;;;10.55;69.85
11190;BME280;5651;50.926;4.718;2023-03-16T09:38:17;101265.47;;;10.46;66.49
11190;BME280;5651;50.926;4.718;2023-03-16T09:40:45;101265.53;;;10.57;67.43
11190;BME280;5651;50.926;4.718;2023-03-16T09:46:08;101264.63;;;10.55;64.70
11190;BME280;5651;50.926;4.718;2023-03-16T09:48:37;101267.28;;;10.65;68.09
11190;BME280;5651;50.926;4.718;2023-03-16T09:51:07;101261.16;;;10.59;65.51
11190;BME280;5651;50.926;4.718;2023-03-16T09:53:34;101255.09;;;10.73;67.76
11190;BME280;5651;50.926;4.718;2023-03-16T09:56:05;101249.88;;;10.62;65.08
11190;BME280;5651;50.926;4.718;2023-03-16T09:58:36;101253.38;;;10.83;67.43
11190;BME280;5651;50.926;4.718;2023-03-16T10:04:01;101253.38;;;10.80;67.27
11190;BME280;5651;50.926;4.718;2023-03-16T10:06:29;101252.50;;;10.82;64.45
11190;BME280;5651;50.926;4.718;2023-03-16T10:11:38;101255.97;;;10.92;64.25
11190;BME280;5651;50.926;4.718;2023-03-16T10:17:18;101251.66;;;10.92;63.38
11190;BME280;5651;50.926;4.718;2023-03-16T10:19:49;101250.78;;;10.98;64.76
11190;BME280;5651;50.926;4.718;2023-03-16T10:27:29;101238.63;;;11.17;65.32
11190;BME280;5651;50.926;4.718;2023-03-16T10:29:55;101240.31;;;11.29;63.12
11190;BME280;5651;50.926;4.718;2023-03-16T10:32:21;101222.06;;;11.35;63.99
11190;BME280;5651;50.926;4.718;2023-03-16T10:34:58;101224.66;;;11.43;64.09
11190;BME280;5651;50.926;4.718;2023-03-16T10:37:25;101217.66;;;11.57;65.18
11190;BME280;5651;50.926;4.718;2023-03-16T10:39:53;101213.28;;;11.73;62.82
11190;BME280;5651;50.926;4.718;2023-03-16T10:42:20;101215.88;;;11.73;60.16
11190;BME280;5651;50.926;4.718;2023-03-16T10:44:46;101209.75;;;11.85;61.32
11190;BME280;5651;50.926;4.718;2023-03-16T10:47:21;101209.72;;;11.87;58.68
11190;BME280;5651;50.926;4.718;2023-03-16T10:49:48;101204.50;;;11.84;56.28
11190;BME280;5651;50.926;4.718;2023-03-16T10:52:32;101203.59;;;11.94;59.08
11190;BME280;5651;50.926;4.718;2023-03-16T10:55:26;101196.53;;;12.21;59.54
11190;BME280;5651;50.926;4.718;2023-03-16T10:57:55;101192.09;;;12.34;58.37
11190;BME280;5651;50.926;4.718;2023-03-16T11:00:25;101196.47;;;12.30;53.35
11190;BME280;5651;50.926;4.718;2023-03-16T11:02:52;101190.25;;;12.48;54.68
11190;BME280;5651;50.926;4.718;2023-03-16T11:05:25;101177.09;;;12.62;56.01
11190;BME280;5651;50.926;4.718;2023-03-16T11:13:21;101176.84;;;12.93;55.45
11190;BME280;5651;50.926;4.718;2023-03-16T11:15:57;101171.53;;;13.01;54.38
11190;BME280;5651;50.926;4.718;2023-03-16T11:18:48;101169.03;;;12.86;51.35
11190;BME280;5651;50.926;4.718;2023-03-16T11:21:51;101169.06;;;12.87;51.02
11190;BME280;5651;50.926;4.718;2023-03-16T11:27:36;101151.50;;;12.95;50.54
11190;BME280;5651;50.926;4.718;2023-03-16T11:30:11;101156.66;;;13.08;50.33
11190;BME280;5651;50.926;4.718;2023-03-16T11:32:38;101156.63;;;13.09;50.66
11190;BME280;5651;50.926;4.718;2023-03-16T11:35:15;101135.56;;;13.23;50.56
11190;BME280;5651;50.926;4.718;2023-03-16T12:08:22;101132.63;;;14.17;50.09
11190;BME280;5651;50.926;4.718;2023-03-16T12:10:57;101120.31;;;14.22;49.96
11190;BME280;5651;50.926;4.718;2023-03-16T12:16:20;101101.97;;;14.77;49.95
11190;BME280;5651;50.926;4.718;2023-03-16T12:18:52;101098.06;;;14.99;48.23
11190;BME280;5651;50.926;4.718;2023-03-16T12:24:01;101084.88;;;15.89;48.88
11190;BME280;5651;50.926;4.718;2023-03-16T12:26:31;101072.50;;;15.92;45.13
11190;BME280;5651;50.926;4.718;2023-03-16T12:28:59;101077.84;;;16.25;45.55
11190;BME280;5651;50.926;4.718;2023-03-16T12:31:44;101080.31;;;16.68;45.99
11190;BME280;5651;50.926;4.718;2023-03-16T12:34:42;101070.53;;;17.06;44.68
11190;BME280;5651;50.926;4.718;2023-03-16T12:50:55;101039.44;;;17.77;42.00
11190;BME280;5651;50.926;4.718;2023-03-16T12:56:07;101021.22;;;18.25;41.29
11190;BME280;5651;50.926;4.718;2023-03-16T12:58:35;101018.91;;;18.41;39.89
11190;BME280;5651;50.926;4.718;2023-03-16T13:01:01;101017.16;;;18.66;41.09
11190;BME280;5651;50.926;4.718;2023-03-16T13:03:32;100999.06;;;18.56;38.89
11190;BME280;5651;50.926;4.718;2023-03-16T13:05:58;101014.28;;;18.47;38.70
11190;BME280;5651;50.926;4.718;2023-03-16T13:08:25;101005.06;;;18.09;40.69
11190;BME280;5651;50.926;4.718;2023-03-16T13:13:29;100992.38;;;18.20;39.33
11190;BME280;5651;50.926;4.718;2023-03-16T13:16:04;100988.75;;;18.23;38.57
11190;BME280;5651;50.926;4.718;2023-03-16T13:18:39;100982.13;;;18.11;38.65
11190;BME280;5651;50.926;4.718;2023-03-16T13:21:18;100982.69;;;18.46;39.87
11190;BME280;5651;50.926;4.718;2023-03-16T13:26:17;100998.50;;;18.71;39.78
11190;BME280;5651;50.926;4.718;2023-03-16T13:28:52;100982.78;;;18.43;39.03
11190;BME280;5651;50.926;4.718;2023-03-16T13:31:27;100978.34;;;18.43;38.22
11190;BME280;5651;50.926;4.718;2023-03-16T13:34:00;100964.16;;;18.96;39.54
11190;BME280;5651;50.926;4.718;2023-03-16T13:36:28;100974.84;;;19.39;39.34
11190;BME280;5651;50.926;4.718;2023-03-16T13:39:14;100964.41;;;19.58;37.42
11190;BME280;5651;50.926;4.718;2023-03-16T13:41:41;100962.59;;;19.59;36.89
11190;BME280;5651;50.926;4.718;2023-03-16T13:44:13;100970.72;;;19.76;36.99
11190;BME280;5651;50.926;4.718;2023-03-16T13:46:39;100970.97;;;20.13;36.39
11190;BME280;5651;50.926;4.718;2023-03-16T13:49:05;100987.38;;;19.56;36.02
11190;BME280;5651;50.926;4.718;2023-03-16T13:51:33;100959.97;;;19.81;37.41
11190;BME280;5651;50.926;4.718;2023-03-16T13:54:31;100955.47;;;19.61;35.94
11190;BME280;5651;50.926;4.718;2023-03-16T13:57:02;100948.38;;;20.26;36.99
11190;BME280;5651;50.926;4.718;2023-03-16T13:59:32;100949.38;;;20.64;36.63
11190;BME280;5651;50.926;4.718;2023-03-16T14:01:59;100936.69;;;20.91;36.74
11190;BME280;5651;50.926;4.718;2023-03-16T14:04:31;100940.22;;;20.71;34.54
11190;BME280;5651;50.926;4.718;2023-03-16T14:06:59;100933.34;;;19.86;34.51
11190;BME280;5651;50.926;4.718;2023-03-16T14:09:35;100947.22;;;20.11;34.67
11190;BME280;5651;50.926;4.718;2023-03-16T14:12:01;100927.97;;;20.49;32.49
11190;BME280;5651;50.926;4.718;2023-03-16T14:14:30;100913.50;;;20.17;34.39
11190;BME280;5651;50.926;4.718;2023-03-16T14:17:11;100915.84;;;20.43;33.57
11190;BME280;5651;50.926;4.718;2023-03-16T14:19:47;100906.38;;;20.78;33.19
11190;BME280;5651;50.926;4.718;2023-03-16T14:22:17;100890.16;;;21.41;33.98
11190;BME280;5651;50.926;4.718;2023-03-16T14:24:50;100896.13;;;21.64;34.06
11190;BME280;5651;50.926;4.718;2023-03-16T14:27:24;100901.56;;;21.96;33.63
11190;BME280;5651;50.926;4.718;2023-03-16T14:29:52;100896.13;;;22.66;35.14
11190;BME280;5651;50.926;4.718;2023-03-16T14:32:28;100905.59;;;22.03;33.52
11190;BME280;5651;50.926;4.718;2023-03-16T14:35:10;100889.16;;;21.96;33.76
11190;BME280;5651;50.926;4.718;2023-03-16T14:37:38;100892.38;;;21.68;32.86
11190;BME280;5651;50.926;4.718;2023-03-16T14:40:17;100905.31;;;21.74;32.57
11190;BME280;5651;50.926;4.718;2023-03-16T14:42:45;100889.84;;;21.65;33.14
11190;BME280;5651;50.926;4.718;2023-03-16T14:45:12;100901.50;;;21.26;32.72
11190;BME280;5651;50.926;4.718;2023-03-16T14:47:47;100902.88;;;20.96;33.70
11190;BME280;5651;50.926;4.718;2023-03-16T14:50:18;100907.09;;;20.81;33.13
11190;BME280;5651;50.926;4.718;2023-03-16T14:52:46;100884.91;;;19.84;34.52